Time;durP1;ratioP1;P1;durP2;ratioP2;P2;SDS_P1;SDS_P2;PMS_P1;PMS_P2;Temp;Humidity;BMP_temperature;BMP_pressure;BME280_temperature;BME280_humidity;BME280_pressure;Samples;Min_cycle;Max_cycle;Signal;HPM_P1;HPM_P2
2023/09/24 00:01:00;;;;;;;2.83;0.80;;;12.60;99.90;;;;;;5045896;28;20063;-80
2023/09/24 00:03:27;;;;;;;3.40;0.90;;;12.60;99.90;;;;;;5053566;28;20045;-80
2023/09/24 00:05:54;;;;;;;2.20;1.10;;;12.60;99.90;;;;;;5047622;28;20054;-81
2023/09/24 00:08:21;;;;;;;4.22;1.40;;;12.60;99.90;;;;;;5043283;28;20071;-80
2023/09/24 00:10:52;;;;;;;2.65;0.80;;;12.60;99.90;;;;;;5056991;28;20124;-80
2023/09/24 00:13:21;;;;;;;3.47;0.93;;;12.50;99.90;;;;;;5055391;28;20081;-80
2023/09/24 00:15:52;;;;;;;0.68;0.65;;;12.50;99.90;;;;;;5048964;28;20613;-80
2023/09/24 00:18:19;;;;;;;2.13;0.77;;;12.50;99.90;;;;;;5052831;28;20261;-80
2023/09/24 00:20:47;;;;;;;1.60;0.57;;;12.50;99.90;;;;;;5047329;28;20042;-80
2023/09/24 00:23:17;;;;;;;0.77;0.60;;;12.40;99.90;;;;;;5048681;28;20049;-80
2023/09/24 00:25:44;;;;;;;2.53;0.80;;;12.40;99.90;;;;;;5053325;28;20136;-80
2023/09/24 00:28:11;;;;;;;2.35;0.90;;;12.40;99.90;;;;;;5036554;28;20198;-80
2023/09/24 00:30:41;;;;;;;1.85;0.80;;;12.40;99.90;;;;;;5050217;28;20040;-80
2023/09/24 00:33:08;;;;;;;2.15;0.70;;;12.40;99.90;;;;;;5050457;28;20072;-80
2023/09/24 00:35:35;;;;;;;1.20;0.75;;;12.40;99.90;;;;;;5048228;28;20111;-80
2023/09/24 00:38:02;;;;;;;3.03;1.25;;;12.30;99.90;;;;;;5047192;28;20061;-80
2023/09/24 00:40:29;;;;;;;3.17;1.05;;;12.30;99.90;;;;;;5060600;28;20057;-80
2023/09/24 00:42:56;;;;;;;9.07;1.23;;;12.30;99.90;;;;;;5046679;28;20041;-80
2023/09/24 00:45:25;;;;;;;4.63;0.93;;;12.30;99.90;;;;;;5052206;28;20045;-80
2023/09/24 00:47:53;;;;;;;1.23;0.90;;;12.20;99.90;;;;;;5048748;28;20087;-81
2023/09/24 00:50:21;;;;;;;4.38;1.02;;;12.20;99.90;;;;;;5048429;28;20516;-80
2023/09/24 00:52:50;;;;;;;1.10;0.82;;;12.20;99.90;;;;;;5049682;28;20052;-80
2023/09/24 00:55:17;;;;;;;2.70;0.80;;;12.10;99.90;;;;;;5053119;28;20045;-80
2023/09/24 00:57:47;;;;;;;2.90;0.80;;;12.10;99.90;;;;;;5056288;28;20044;-80
2023/09/24 01:00:16;;;;;;;1.67;0.73;;;12.10;99.90;;;;;;5047423;28;20041;-80
2023/09/24 01:02:46;;;;;;;0.82;0.70;;;12.10;99.90;;;;;;5054312;28;20520;-80
2023/09/24 01:05:14;;;;;;;1.75;0.80;;;12.10;99.90;;;;;;5054136;28;20191;-80
2023/09/24 01:07:42;;;;;;;1.52;0.80;;;12.00;99.90;;;;;;5067383;28;20423;-80
2023/09/24 01:10:11;;;;;;;2.30;1.00;;;12.00;99.90;;;;;;5058693;28;20049;-80
2023/09/24 01:12:39;;;;;;;1.58;0.85;;;12.00;99.90;;;;;;5062652;28;20080;-80
2023/09/24 01:15:13;;;;;;;2.10;0.88;;;12.00;99.90;;;;;;5046575;28;20048;-79
2023/09/24 01:17:40;;;;;;;3.47;0.80;;;12.00;99.90;;;;;;5051197;28;20507;-80
2023/09/24 01:20:12;;;;;;;0.68;0.60;;;11.90;99.90;;;;;;5041523;28;20128;-80
2023/09/24 01:22:40;;;;;;;1.83;0.80;;;11.90;99.90;;;;;;5059321;28;20049;-80
2023/09/24 01:25:07;;;;;;;2.55;0.60;;;11.90;99.90;;;;;;5054184;28;20080;-80
2023/09/24 01:27:35;;;;;;;1.73;0.73;;;11.90;99.90;;;;;;5053000;28;20076;-80
2023/09/24 01:30:05;;;;;;;0.98;0.60;;;11.80;99.90;;;;;;5044605;28;20056;-79
2023/09/24 01:32:32;;;;;;;1.38;0.80;;;11.80;99.90;;;;;;5048039;28;20057;-80
2023/09/24 01:35:06;;;;;;;1.73;0.75;;;11.80;99.90;;;;;;5048826;28;20059;-80
2023/09/24 01:37:37;;;;;;;2.92;1.15;;;11.80;99.90;;;;;;5055092;28;20045;-80
2023/09/24 01:40:18;;;;;;;3.03;0.68;;;11.80;99.90;;;;;;5047966;28;20079;-80
2023/09/24 01:42:46;;;;;;;3.08;0.88;;;11.80;99.90;;;;;;5034240;28;20047;-80
2023/09/24 01:45:14;;;;;;;2.25;0.85;;;11.70;99.90;;;;;;5043256;28;20056;-80
2023/09/24 01:47:41;;;;;;;2.58;0.77;;;11.70;99.90;;;;;;5047319;28;20051;-80
2023/09/24 01:50:08;;;;;;;3.28;0.65;;;11.70;99.90;;;;;;5035133;28;20475;-80
2023/09/24 01:52:36;;;;;;;0.82;0.68;;;11.70;99.90;;;;;;5054376;28;20081;-80
2023/09/24 01:55:03;;;;;;;2.08;0.85;;;11.70;99.90;;;;;;5046475;28;20432;-80
2023/09/24 01:57:31;;;;;;;2.97;0.90;;;11.70;99.90;;;;;;5050325;28;20052;-80
2023/09/24 01:59:58;;;;;;;0.80;0.70;;;11.60;99.90;;;;;;5042953;28;20099;-80
2023/09/24 02:02:26;;;;;;;1.67;0.90;;;11.60;99.90;;;;;;5047018;28;20048;-80
2023/09/24 02:04:54;;;;;;;0.98;0.70;;;11.60;99.90;;;;;;5056565;28;20111;-80
2023/09/24 02:07:21;;;;;;;1.58;0.75;;;11.60;99.90;;;;;;5053787;28;20060;-80
2023/09/24 02:09:48;;;;;;;3.17;0.80;;;11.50;99.90;;;;;;5050593;28;20044;-80
2023/09/24 02:12:15;;;;;;;1.48;1.00;;;11.60;99.90;;;;;;5049392;28;20103;-80
2023/09/24 02:14:41;;;;;;;0.88;0.80;;;11.50;99.90;;;;;;5044236;28;20049;-80
2023/09/24 02:17:09;;;;;;;1.45;1.00;;;11.50;99.90;;;;;;5048058;28;20068;-80
2023/09/24 02:19:36;;;;;;;1.30;0.82;;;11.50;99.90;;;;;;5053428;28;20566;-80
2023/09/24 02:22:03;;;;;;;6.95;1.00;;;11.50;99.90;;;;;;5052772;28;20048;-77
2023/09/24 02:24:29;;;;;;;2.75;0.80;;;11.50;99.90;;;;;;5046319;28;20049;-80
2023/09/24 02:26:56;;;;;;;3.65;0.90;;;11.50;99.90;;;;;;5049498;28;20102;-80
2023/09/24 02:29:23;;;;;;;1.88;1.00;;;11.50;99.90;;;;;;5044316;28;20052;-80
2023/09/24 02:31:52;;;;;;;3.60;0.90;;;11.50;99.90;;;;;;5049809;28;20106;-80
2023/09/24 02:34:19;;;;;;;5.53;0.82;;;11.50;99.90;;;;;;5051119;28;20128;-80
2023/09/24 02:36:46;;;;;;;0.75;0.57;;;11.40;99.90;;;;;;5054386;28;20052;-80
2023/09/24 02:39:12;;;;;;;1.70;0.70;;;11.40;99.90;;;;;;5045244;28;20041;-80
2023/09/24 02:41:40;;;;;;;2.42;0.90;;;11.40;99.90;;;;;;5049876;28;20420;-80
2023/09/24 02:44:07;;;;;;;2.22;0.50;;;11.40;99.90;;;;;;5026269;28;20056;-80
2023/09/24 02:46:35;;;;;;;0.85;0.70;;;11.40;99.90;;;;;;5047664;28;20053;-80
2023/09/24 02:49:02;;;;;;;4.13;0.90;;;11.30;99.90;;;;;;5052241;28;20049;-80
2023/09/24 02:51:29;;;;;;;0.98;0.60;;;11.30;99.90;;;;;;5051145;28;20115;-80
2023/09/24 02:53:56;;;;;;;1.13;0.52;;;11.30;99.90;;;;;;5048012;28;20076;-80
2023/09/24 02:56:23;;;;;;;5.00;0.85;;;11.30;99.90;;;;;;5047390;28;20049;-80
2023/09/24 02:58:49;;;;;;;2.22;0.65;;;11.20;99.90;;;;;;5046380;28;20037;-80
2023/09/24 03:01:20;;;;;;;1.13;0.70;;;11.20;99.90;;;;;;5035361;28;20045;-80
2023/09/24 03:03:46;;;;;;;2.30;0.95;;;11.20;99.90;;;;;;5054249;28;20128;-80
2023/09/24 03:06:14;;;;;;;1.73;0.70;;;11.20;99.90;;;;;;5051305;28;20053;-79
2023/09/24 03:08:40;;;;;;;1.75;0.82;;;11.20;99.90;;;;;;5056696;28;20049;-79
2023/09/24 03:11:14;;;;;;;2.35;0.77;;;11.10;99.90;;;;;;5046688;28;20048;-80
2023/09/24 03:13:41;;;;;;;1.38;0.77;;;11.10;99.90;;;;;;5044378;28;20081;-80
2023/09/24 03:16:08;;;;;;;1.35;0.73;;;11.10;99.90;;;;;;5050442;28;20078;-80
2023/09/24 03:18:35;;;;;;;2.60;0.73;;;11.10;99.90;;;;;;5050936;28;20605;-80
2023/09/24 03:21:06;;;;;;;2.78;1.13;;;11.10;99.90;;;;;;5032535;28;20047;-80
2023/09/24 03:23:33;;;;;;;1.83;0.80;;;11.00;99.90;;;;;;5045309;28;20050;-80
2023/09/24 03:26:00;;;;;;;4.47;0.80;;;11.00;99.90;;;;;;5042558;28;20135;-81
2023/09/24 03:28:27;;;;;;;1.15;0.80;;;11.00;99.90;;;;;;5044781;28;20550;-80
2023/09/24 03:30:54;;;;;;;1.80;0.70;;;11.00;99.90;;;;;;5057021;28;20499;-80
2023/09/24 03:33:21;;;;;;;2.50;0.60;;;11.00;99.90;;;;;;5048349;28;20519;-80
2023/09/24 03:35:48;;;;;;;2.05;1.00;;;10.90;99.90;;;;;;5035434;28;20056;-80
2023/09/24 03:38:15;;;;;;;2.13;1.05;;;10.90;99.90;;;;;;5047667;28;20080;-80
2023/09/24 03:40:42;;;;;;;2.15;0.93;;;10.90;99.90;;;;;;5050958;28;20045;-80
2023/09/24 03:43:09;;;;;;;0.88;0.77;;;10.90;99.90;;;;;;5051919;28;20045;-80
2023/09/24 03:45:36;;;;;;;1.70;0.95;;;10.90;99.90;;;;;;5062398;28;20049;-80
2023/09/24 03:48:03;;;;;;;4.57;0.93;;;10.90;99.90;;;;;;5054427;28;20068;-80
2023/09/24 03:50:30;;;;;;;1.85;0.90;;;10.80;99.90;;;;;;5036555;28;20046;-80
2023/09/24 03:52:56;;;;;;;2.30;1.02;;;10.90;99.90;;;;;;5047586;28;20528;-80
2023/09/24 03:55:23;;;;;;;2.30;1.45;;;10.80;99.90;;;;;;5050271;28;20076;-80
2023/09/24 03:57:50;;;;;;;2.58;0.95;;;10.80;99.90;;;;;;5058027;28;20045;-80
2023/09/24 04:00:21;;;;;;;1.67;1.00;;;10.80;99.90;;;;;;5057914;28;20124;-80
2023/09/24 04:02:49;;;;;;;2.08;1.60;;;10.80;99.90;;;;;;5056744;28;20045;-80
2023/09/24 04:05:21;;;;;;;5.50;1.40;;;10.80;99.90;;;;;;5034405;28;20046;-80
2023/09/24 04:07:53;;;;;;;2.88;1.60;;;10.70;99.90;;;;;;5050544;28;20084;-80
2023/09/24 04:10:22;;;;;;;1.05;0.93;;;10.80;99.90;;;;;;5041806;28;20041;-80
2023/09/24 04:12:52;;;;;;;1.38;0.90;;;10.80;99.90;;;;;;5037966;28;20142;-80
2023/09/24 04:15:20;;;;;;;;;;;10.70;99.90;;;;;;5055812;28;20052;-79
2023/09/24 04:17:50;;;;;;;4.28;0.90;;;10.70;99.90;;;;;;5045187;28;20377;-79
2023/09/24 04:20:20;;;;;;;;;;;10.70;99.90;;;;;;5033071;28;20559;-80
2023/09/24 04:22:48;;;;;;;2.65;1.02;;;10.70;99.90;;;;;;5047877;28;19921;-80
2023/09/24 04:25:20;;;;;;;1.27;0.80;;;10.70;99.90;;;;;;5045451;28;20076;-80
2023/09/24 04:27:48;;;;;;;4.72;1.20;;;10.70;99.90;;;;;;5056369;28;20044;-80
2023/09/24 04:30:16;;;;;;;1.80;0.90;;;10.60;99.90;;;;;;5039496;28;20049;-81
2023/09/24 04:32:44;;;;;;;4.13;1.20;;;10.60;99.90;;;;;;5042447;28;20045;-79
2023/09/24 04:35:11;;;;;;;2.05;0.90;;;10.60;99.90;;;;;;5046935;28;20045;-80
2023/09/24 04:37:41;;;;;;;1.30;0.77;;;10.60;99.90;;;;;;5045367;28;20037;-80
2023/09/24 04:40:14;;;;;;;4.22;1.05;;;10.60;99.90;;;;;;5045908;28;20040;-80
2023/09/24 04:42:41;;;;;;;1.25;0.93;;;10.60;99.90;;;;;;5036651;28;20045;-80
2023/09/24 04:45:10;;;;;;;12.80;1.20;;;10.50;99.90;;;;;;5056050;28;20044;-80
2023/09/24 04:47:38;;;;;;;1.15;0.90;;;10.50;99.90;;;;;;5049095;28;20102;-80
2023/09/24 04:50:07;;;;;;;1.42;1.00;;;10.50;99.90;;;;;;5050270;28;20044;-80
2023/09/24 04:52:34;;;;;;;1.35;0.90;;;10.50;99.90;;;;;;5040543;28;20072;-80
2023/09/24 04:55:01;;;;;;;2.40;0.95;;;10.50;99.90;;;;;;5048196;28;20049;-80
2023/09/24 04:57:28;;;;;;;1.95;1.00;;;10.50;99.90;;;;;;5053109;28;20048;-80
2023/09/24 04:59:54;;;;;;;2.88;1.38;;;10.40;99.90;;;;;;5057304;28;20092;-80
2023/09/24 05:02:23;;;;;;;1.98;0.85;;;10.40;99.90;;;;;;5047632;28;20052;-80
2023/09/24 05:04:50;;;;;;;3.30;0.80;;;10.40;99.90;;;;;;5051081;28;20045;-80
2023/09/24 05:07:17;;;;;;;2.42;1.27;;;10.40;99.90;;;;;;5046916;28;20428;-80
2023/09/24 05:09:44;;;;;;;2.05;1.05;;;10.40;99.90;;;;;;5048159;28;20467;-80
2023/09/24 05:12:12;;;;;;;6.18;1.20;;;10.40;99.90;;;;;;5052703;28;20436;-80
2023/09/24 05:14:39;;;;;;;1.73;0.90;;;10.40;99.90;;;;;;5050752;28;20041;-80
2023/09/24 05:17:07;;;;;;;2.13;0.98;;;10.40;99.90;;;;;;5048308;28;20397;-80
2023/09/24 05:19:34;;;;;;;1.60;0.93;;;10.30;99.90;;;;;;5046984;28;20060;-80
2023/09/24 05:22:00;;;;;;;2.72;1.00;;;10.30;99.90;;;;;;5047322;28;20496;-80
2023/09/24 05:24:30;;;;;;;1.73;1.00;;;10.30;99.90;;;;;;5053503;28;20128;-80
2023/09/24 05:26:57;;;;;;;1.45;1.00;;;10.30;99.90;;;;;;5036289;28;20053;-80
2023/09/24 05:29:24;;;;;;;1.77;1.08;;;10.30;99.90;;;;;;5049362;28;20041;-80
2023/09/24 05:31:51;;;;;;;2.72;1.13;;;10.30;99.90;;;;;;5029376;28;20417;-80
2023/09/24 05:34:17;;;;;;;1.17;0.88;;;10.30;99.90;;;;;;5043356;28;20041;-80
2023/09/24 05:36:44;;;;;;;2.10;1.00;;;10.30;99.90;;;;;;5047370;28;20056;-80
2023/09/24 05:39:11;;;;;;;3.00;1.10;;;10.30;99.90;;;;;;5052177;28;20044;-80
2023/09/24 05:41:38;;;;;;;2.55;1.25;;;10.30;99.90;;;;;;5052191;28;20424;-80
2023/09/24 05:44:05;;;;;;;1.77;1.23;;;10.30;99.90;;;;;;5053036;28;20052;-80
2023/09/24 05:46:32;;;;;;;3.00;1.08;;;10.30;99.90;;;;;;5047621;28;20111;-80
2023/09/24 05:49:00;;;;;;;1.20;0.90;;;10.30;99.90;;;;;;5046937;28;20131;-80
2023/09/24 05:51:27;;;;;;;4.53;1.38;;;10.30;99.90;;;;;;5052309;28;20059;-80
2023/09/24 05:53:53;;;;;;;2.20;1.25;;;10.30;99.90;;;;;;5059068;28;20059;-80
2023/09/24 05:56:20;;;;;;;3.22;1.20;;;10.30;99.90;;;;;;5050116;28;20048;-81
2023/09/24 05:58:47;;;;;;;3.63;1.60;;;10.30;99.90;;;;;;5039011;28;20049;-80
2023/09/24 06:01:17;;;;;;;1.65;0.85;;;10.30;99.90;;;;;;5047290;28;20041;-80
2023/09/24 06:03:43;;;;;;;3.15;1.30;;;10.30;99.90;;;;;;5041480;28;20052;-80
2023/09/24 06:06:10;;;;;;;1.73;1.00;;;10.30;99.90;;;;;;5050909;28;20051;-79
2023/09/24 06:08:37;;;;;;;2.53;1.02;;;10.30;99.90;;;;;;5053390;28;20069;-80
2023/09/24 06:11:05;;;;;;;2.90;0.98;;;10.30;99.90;;;;;;5051957;28;20048;-80
2023/09/24 06:13:32;;;;;;;3.80;1.23;;;10.30;99.90;;;;;;5048713;28;20050;-80
2023/09/24 06:16:00;;;;;;;4.65;1.20;;;10.40;99.90;;;;;;5048413;28;20053;-80
2023/09/24 06:18:27;;;;;;;5.13;1.40;;;10.40;99.90;;;;;;5043162;28;20095;-80
2023/09/24 06:20:54;;;;;;;3.72;1.00;;;10.40;99.90;;;;;;5052648;28;20057;-80
2023/09/24 06:23:21;;;;;;;7.80;1.13;;;10.50;99.90;;;;;;5053340;28;20047;-80
2023/09/24 06:26:00;;;;;;;4.53;1.38;;;10.50;99.90;;;;;;5048492;28;20041;-80
2023/09/24 06:28:27;;;;;;;5.80;1.40;;;10.50;99.90;;;;;;5046911;28;20061;-81
2023/09/24 06:31:04;;;;;;;3.92;1.10;;;10.50;99.90;;;;;;5049405;28;20475;-80
2023/09/24 06:33:31;;;;;;;1.90;1.17;;;10.50;99.90;;;;;;5045033;28;20038;-80
2023/09/24 06:36:02;;;;;;;2.17;1.30;;;10.60;99.90;;;;;;5038759;28;20099;-81
2023/09/24 06:38:29;;;;;;;3.45;1.70;;;10.60;99.90;;;;;;5053044;28;20555;-80
2023/09/24 06:41:00;;;;;;;4.65;1.30;;;10.60;99.90;;;;;;5051005;28;20109;-80
2023/09/24 06:43:27;;;;;;;2.20;1.10;;;10.70;99.90;;;;;;5047841;28;20041;-80
2023/09/24 06:45:54;;;;;;;2.72;1.10;;;10.70;99.90;;;;;;5047331;28;20099;-80
2023/09/24 06:48:22;;;;;;;2.13;1.45;;;10.70;99.90;;;;;;5041717;28;20036;-80
2023/09/24 06:50:50;;;;;;;2.42;1.40;;;10.80;99.90;;;;;;5053923;28;20037;-80
2023/09/24 06:53:18;;;;;;;2.78;1.42;;;10.80;99.90;;;;;;5053817;28;20094;-80
2023/09/24 06:55:45;;;;;;;6.53;3.17;;;10.90;99.90;;;;;;5046777;28;20052;-80
2023/09/24 06:58:14;;;;;;;3.20;1.80;;;10.90;99.90;;;;;;5029700;28;20605;-80
2023/09/24 07:00:41;;;;;;;3.80;2.38;;;10.90;99.90;;;;;;5046222;28;20048;-80
2023/09/24 07:03:08;;;;;;;6.43;3.20;;;10.90;99.90;;;;;;5045141;28;20041;-80
2023/09/24 07:05:36;;;;;;;9.15;3.60;;;11.00;99.90;;;;;;5048714;28;20048;-80
2023/09/24 07:08:04;;;;;;;4.22;3.15;;;11.00;99.90;;;;;;5040442;28;20079;-80
2023/09/24 07:10:31;;;;;;;6.57;3.05;;;11.00;99.90;;;;;;5044209;28;20041;-80
2023/09/24 07:12:58;;;;;;;5.63;2.72;;;11.10;99.90;;;;;;5044312;28;20484;-79
2023/09/24 07:15:24;;;;;;;4.72;2.70;;;11.10;99.90;;;;;;5045454;28;20049;-81
2023/09/24 07:17:51;;;;;;;4.28;3.00;;;11.10;99.90;;;;;;5041957;28;20079;-81
2023/09/24 07:20:20;;;;;;;7.38;3.08;;;11.20;99.90;;;;;;5052324;28;20045;-80
2023/09/24 07:22:47;;;;;;;5.28;2.65;;;11.20;99.90;;;;;;5049575;28;20048;-80
2023/09/24 07:25:14;;;;;;;4.72;3.00;;;11.20;99.90;;;;;;5046451;28;20050;-80
2023/09/24 07:27:41;;;;;;;4.25;2.55;;;11.30;99.90;;;;;;5027558;28;20047;-80
2023/09/24 07:30:09;;;;;;;6.32;2.40;;;11.30;99.90;;;;;;5046412;28;20556;-80
2023/09/24 07:32:37;;;;;;;5.10;2.28;;;11.40;99.90;;;;;;5053430;28;20482;-81
2023/09/24 07:35:05;;;;;;;4.63;2.75;;;11.40;99.90;;;;;;5054186;28;20084;-80
2023/09/24 07:37:31;;;;;;;7.55;2.38;;;11.50;99.90;;;;;;5049489;28;20045;-80
2023/09/24 07:39:58;;;;;;;3.35;2.58;;;11.50;99.90;;;;;;5048792;28;20052;-80
2023/09/24 07:42:25;;;;;;;4.78;2.50;;;11.60;99.90;;;;;;5043698;28;20091;-80
2023/09/24 07:44:52;;;;;;;4.28;2.75;;;11.60;99.90;;;;;;5030790;28;20111;-80
2023/09/24 07:47:19;;;;;;;6.07;2.38;;;11.60;99.90;;;;;;5057694;28;20044;-80
2023/09/24 07:49:46;;;;;;;5.22;2.75;;;11.70;99.90;;;;;;5049418;28;20452;-81
2023/09/24 07:52:14;;;;;;;3.50;2.28;;;11.70;99.90;;;;;;5052170;28;20072;-81
2023/09/24 07:54:41;;;;;;;3.03;2.25;;;11.70;99.90;;;;;;5045841;28;20471;-80
2023/09/24 07:57:08;;;;;;;5.65;2.33;;;11.70;99.90;;;;;;5043344;28;20080;-80
2023/09/24 07:59:34;;;;;;;4.28;2.30;;;11.80;99.90;;;;;;5047522;28;20065;-80
2023/09/24 08:02:02;;;;;;;4.38;2.03;;;11.80;99.90;;;;;;5054775;28;20496;-80
2023/09/24 08:04:29;;;;;;;3.15;2.42;;;11.90;99.90;;;;;;5049155;28;20067;-80
2023/09/24 08:06:56;;;;;;;2.78;2.25;;;11.90;99.90;;;;;;5030169;28;20099;-80
2023/09/24 08:09:22;;;;;;;8.80;2.72;;;12.00;99.90;;;;;;5047768;28;20056;-79
2023/09/24 08:11:54;;;;;;;5.85;2.17;;;12.00;99.90;;;;;;5043285;28;20053;-80
2023/09/24 08:14:22;;;;;;;3.90;2.25;;;12.00;99.90;;;;;;5049948;28;20504;-80
2023/09/24 08:16:51;;;;;;;4.03;2.30;;;12.10;99.90;;;;;;5052087;28;20064;-79
2023/09/24 08:19:18;;;;;;;4.43;2.17;;;12.10;99.90;;;;;;5050896;28;20063;-80
2023/09/24 08:21:45;;;;;;;5.25;2.83;;;12.10;99.90;;;;;;5027166;28;20041;-80
2023/09/24 08:24:11;;;;;;;4.30;2.33;;;12.10;99.90;;;;;;5053247;28;20743;-80
2023/09/24 08:26:38;;;;;;;2.88;2.20;;;12.20;99.90;;;;;;5043065;28;20041;-80
2023/09/24 08:29:06;;;;;;;3.65;2.47;;;12.20;99.90;;;;;;5058681;28;20482;-80
2023/09/24 08:31:34;;;;;;;6.55;2.63;;;12.30;99.90;;;;;;5055412;28;20149;-80
2023/09/24 08:34:02;;;;;;;4.20;2.40;;;12.30;99.90;;;;;;5055061;28;20496;-80
2023/09/24 08:36:29;;;;;;;4.72;2.53;;;12.30;99.90;;;;;;5046046;28;20041;-80
2023/09/24 08:38:57;;;;;;;3.53;2.40;;;12.40;99.90;;;;;;5051557;28;20104;-80
2023/09/24 08:41:24;;;;;;;5.03;2.70;;;12.40;99.90;;;;;;5048311;28;20056;-80
2023/09/24 08:43:55;;;;;;;4.22;2.13;;;12.50;99.90;;;;;;5035912;28;20045;-80
2023/09/24 08:46:23;;;;;;;3.55;1.98;;;12.50;99.90;;;;;;5038253;28;20076;-80
2023/09/24 08:48:52;;;;;;;4.90;2.05;;;12.50;99.90;;;;;;5042132;28;20038;-80
2023/09/24 08:51:19;;;;;;;7.68;2.92;;;12.60;99.90;;;;;;5047246;28;20105;-80
2023/09/24 08:53:46;;;;;;;3.38;2.03;;;12.60;99.90;;;;;;5049370;28;20052;-80
2023/09/24 08:56:13;;;;;;;4.63;2.35;;;12.60;99.90;;;;;;5044674;28;20053;-80
2023/09/24 08:58:42;;;;;;;5.43;2.55;;;12.70;99.90;;;;;;5056345;28;20060;-80
2023/09/24 09:01:10;;;;;;;5.63;1.40;;;12.70;99.90;;;;;;5056396;28;20523;-80
2023/09/24 09:03:38;;;;;;;11.35;2.20;;;12.80;99.90;;;;;;5050016;28;20064;-81
2023/09/24 09:06:04;;;;;;;4.88;1.90;;;12.80;99.90;;;;;;5030692;28;20103;-80
2023/09/24 09:08:51;;;;;;;2.97;1.60;;;12.80;99.90;;;;;;5050418;28;20084;-81
2023/09/24 09:11:19;;;;;;;8.32;2.20;;;12.90;99.90;;;;;;5047899;28;20040;-80
2023/09/24 09:13:50;;;;;;;4.68;1.77;;;12.90;99.90;;;;;;5055859;28;20051;-80
2023/09/24 09:16:20;;;;;;;3.78;1.50;;;13.00;99.90;;;;;;5056431;28;20044;-80
2023/09/24 09:18:59;;;;;;;3.88;1.50;;;13.00;99.90;;;;;;5048584;28;20042;-80
2023/09/24 09:21:26;;;;;;;3.05;1.40;;;13.00;99.90;;;;;;5030232;28;20068;-80
2023/09/24 09:23:53;;;;;;;4.55;1.63;;;13.10;99.90;;;;;;5049283;28;20045;-80
2023/09/24 09:26:30;;;;;;;2.72;1.45;;;13.10;99.90;;;;;;5037244;28;20048;-80
2023/09/24 09:28:56;;;;;;;5.57;1.52;;;13.10;99.90;;;;;;5051725;28;20049;-80
2023/09/24 09:31:23;;;;;;;4.10;1.48;;;13.20;99.90;;;;;;5054716;28;20459;-80
2023/09/24 09:33:50;;;;;;;4.97;2.05;;;13.20;99.90;;;;;;5046329;28;20053;-80
2023/09/24 09:36:28;;;;;;;2.28;1.27;;;13.30;99.90;;;;;;5029513;28;20052;-80
2023/09/24 09:39:00;;;;;;;3.20;1.60;;;13.30;99.90;;;;;;5047809;28;20045;-80
2023/09/24 09:41:29;;;;;;;4.97;1.23;;;13.40;99.90;;;;;;5058392;28;20048;-80
2023/09/24 09:43:59;;;;;;;4.07;1.50;;;13.50;99.90;;;;;;5051121;28;20081;-80
2023/09/24 09:46:25;;;;;;;2.60;1.60;;;13.50;99.90;;;;;;5041677;28;20045;-80
2023/09/24 09:48:59;;;;;;;3.65;1.50;;;13.50;99.90;;;;;;5046651;28;20089;-80
2023/09/24 09:51:27;;;;;;;3.17;1.42;;;13.60;99.90;;;;;;5045220;28;20053;-81
2023/09/24 09:54:05;;;;;;;3.38;1.48;;;13.60;99.90;;;;;;5038060;28;20091;-80
2023/09/24 09:56:35;;;;;;;4.88;1.48;;;13.70;99.90;;;;;;5053102;28;20055;-80
2023/09/24 09:59:04;;;;;;;3.22;1.25;;;13.80;99.90;;;;;;5033958;28;20045;-80
2023/09/24 10:01:31;;;;;;;4.85;1.42;;;13.80;99.90;;;;;;5049632;28;20488;-81
2023/09/24 10:04:02;;;;;;;4.25;1.17;;;13.90;99.90;;;;;;5046382;28;20045;-80
2023/09/24 10:06:34;;;;;;;3.53;1.80;;;13.90;99.90;;;;;;5048508;28;20049;-80
2023/09/24 10:09:02;;;;;;;4.00;1.00;;;14.00;99.90;;;;;;5052829;28;20041;-80
2023/09/24 10:11:32;;;;;;;3.45;1.45;;;14.00;99.90;;;;;;5057993;28;20040;-80
2023/09/24 10:14:03;;;;;;;4.93;1.50;;;14.00;99.90;;;;;;5049059;28;20045;-81
2023/09/24 10:16:36;;;;;;;3.72;1.35;;;14.10;99.90;;;;;;5052637;28;20101;-80
2023/09/24 10:19:11;;;;;;;3.28;1.33;;;14.10;99.90;;;;;;5044830;28;20045;-81
2023/09/24 10:21:39;;;;;;;1.90;1.10;;;14.20;99.90;;;;;;5048771;28;20056;-80
2023/09/24 10:24:15;;;;;;;1.67;1.15;;;14.30;99.90;;;;;;5055083;28;20436;-80
2023/09/24 10:26:49;;;;;;;5.60;1.55;;;14.30;99.90;;;;;;5054106;28;20496;-80
2023/09/24 10:29:17;;;;;;;2.75;1.05;;;14.40;99.90;;;;;;5049082;28;20528;-81
2023/09/24 10:32:05;;;;;;;2.60;1.08;;;14.40;99.90;;;;;;5049567;28;20037;-80
2023/09/24 10:34:51;;;;;;;2.33;1.40;;;14.50;99.90;;;;;;5040592;28;20145;-80
2023/09/24 10:37:26;;;;;;;2.63;1.20;;;14.50;99.90;;;;;;5053366;28;20042;-79
2023/09/24 10:42:41;;;;;;;1.65;1.00;;;14.60;99.90;;;;;;5052519;28;20400;-80
2023/09/24 10:45:12;;;;;;;3.60;1.20;;;14.70;99.90;;;;;;5050263;28;20101;-80
2023/09/24 10:47:43;;;;;;;4.75;0.90;;;14.70;99.90;;;;;;5046381;28;20103;-80
2023/09/24 10:50:23;;;;;;;2.22;0.90;;;14.80;99.90;;;;;;5023517;28;20049;-80
2023/09/24 10:53:01;;;;;;;1.63;0.95;;;14.80;99.90;;;;;;5054369;28;20045;-81
2023/09/24 10:55:29;;;;;;;2.67;1.05;;;14.90;99.90;;;;;;5053808;28;20131;-80
2023/09/24 10:57:58;;;;;;;2.58;1.40;;;14.90;99.90;;;;;;5040074;28;20049;-80
2023/09/24 11:00:26;;;;;;;1.67;1.00;;;15.00;99.90;;;;;;5030197;28;20140;-80
2023/09/24 11:02:58;;;;;;;5.43;1.23;;;15.10;99.90;;;;;;5043994;28;20050;-81
2023/09/24 11:05:27;;;;;;;3.10;0.98;;;15.20;99.90;;;;;;5046603;28;20112;-80
2023/09/24 11:07:54;;;;;;;2.17;0.98;;;15.30;99.90;;;;;;5051074;28;20489;-81
2023/09/24 11:10:23;;;;;;;3.22;1.02;;;15.30;99.90;;;;;;5051621;28;20127;-81
2023/09/24 11:12:52;;;;;;;2.25;1.15;;;15.30;99.90;;;;;;5048598;28;20053;-81
2023/09/24 11:15:19;;;;;;;1.20;1.00;;;15.40;99.90;;;;;;5027863;28;20073;-81
2023/09/24 11:17:47;;;;;;;9.80;5.80;;;15.50;99.90;;;;;;5044963;28;20041;-81
2023/09/24 11:20:17;;;;;;;4.05;3.22;;;15.50;99.90;;;;;;5044402;28;20049;-81
2023/09/24 11:22:44;;;;;;;;;;;15.50;99.90;;;;;;5052177;28;20124;-80
2023/09/24 11:25:12;;;;;;;1.88;1.10;;;15.60;99.90;;;;;;5052167;28;20368;-80
2023/09/24 11:27:47;;;;;;;1.65;0.90;;;15.60;99.90;;;;;;5046063;28;20064;-81
2023/09/24 11:30:20;;;;;;;2.53;1.00;;;15.60;99.90;;;;;;5047328;28;20084;-81
2023/09/24 11:32:51;;;;;;;3.80;0.88;;;15.70;99.90;;;;;;5045308;28;20053;-80
2023/09/24 11:35:25;;;;;;;2.70;1.13;;;15.70;99.90;;;;;;5048345;28;20046;-81
2023/09/24 11:37:54;;;;;;;2.28;1.10;;;15.70;99.90;;;;;;5047932;28;20045;-80
2023/09/24 11:40:25;;;;;;;3.83;1.10;;;15.80;99.90;;;;;;5052151;28;20108;-82
2023/09/24 11:43:00;;;;;;;3.42;0.98;;;15.80;99.90;;;;;;5042993;28;20053;-81
2023/09/24 11:45:53;;;;;;;3.08;1.30;;;15.90;99.90;;;;;;5049319;28;20090;-81
2023/09/24 11:48:22;;;;;;;2.47;1.23;;;15.90;99.90;;;;;;5044427;28;20501;-81
2023/09/24 11:50:54;;;;;;;3.03;1.25;;;15.90;99.90;;;;;;5054486;28;20055;-80
2023/09/24 11:53:23;;;;;;;5.10;1.13;;;16.00;99.90;;;;;;5051814;28;20049;-80
2023/09/24 11:55:59;;;;;;;1.80;0.88;;;16.00;99.90;;;;;;5046687;28;20045;-82
2023/09/24 11:58:26;;;;;;;2.53;1.00;;;16.00;99.90;;;;;;5052392;28;20115;-81
2023/09/24 12:00:58;;;;;;;1.52;1.00;;;16.10;99.90;;;;;;5052381;28;20100;-81
2023/09/24 12:03:26;;;;;;;3.60;0.93;;;16.10;99.90;;;;;;5036179;28;20079;-80
2023/09/24 12:05:53;;;;;;;2.08;1.00;;;16.10;99.90;;;;;;5056931;28;20049;-80
2023/09/24 12:08:20;;;;;;;2.65;1.13;;;16.20;99.90;;;;;;5053770;28;20452;-81
2023/09/24 12:10:47;;;;;;;7.38;0.90;;;16.30;99.90;;;;;;5052878;28;20057;-80
2023/09/24 12:13:15;;;;;;;3.33;0.90;;;16.40;99.90;;;;;;5046647;28;20084;-81
2023/09/24 12:15:42;;;;;;;1.38;0.90;;;16.40;99.90;;;;;;5050191;28;20045;-81
2023/09/24 12:18:09;;;;;;;2.20;1.42;;;16.40;99.90;;;;;;5051987;28;20045;-80
2023/09/24 12:20:39;;;;;;;2.78;0.90;;;16.50;99.90;;;;;;5050676;28;20393;-81
2023/09/24 12:23:07;;;;;;;1.95;0.90;;;16.50;99.90;;;;;;5050247;28;20476;-80
2023/09/24 12:25:36;;;;;;;5.05;1.73;;;16.60;99.90;;;;;;5053730;28;20041;-81
2023/09/24 12:28:10;;;;;;;2.63;0.80;;;16.70;99.90;;;;;;5044875;28;20048;-81
2023/09/24 12:30:38;;;;;;;2.67;1.10;;;16.80;99.90;;;;;;5048591;28;20045;-81
2023/09/24 12:33:06;;;;;;;3.95;0.88;;;16.80;99.90;;;;;;5056371;28;20045;-81
2023/09/24 12:35:39;;;;;;;4.45;0.85;;;16.90;99.90;;;;;;5054379;28;20143;-81
2023/09/24 12:38:06;;;;;;;0.95;0.70;;;17.00;99.90;;;;;;5048625;28;20056;-81
2023/09/24 12:40:33;;;;;;;1.90;0.85;;;17.00;99.90;;;;;;5053966;28;20079;-81
2023/09/24 12:43:00;;;;;;;1.40;0.73;;;17.10;99.90;;;;;;5045528;28;20548;-81
2023/09/24 12:45:27;;;;;;;2.22;1.00;;;17.10;99.90;;;;;;5054930;28;20509;-80
2023/09/24 12:47:53;;;;;;;1.38;0.70;;;17.20;99.90;;;;;;5054229;28;20136;-81
2023/09/24 12:50:20;;;;;;;2.00;0.98;;;17.20;99.90;;;;;;5046491;28;20053;-80
2023/09/24 12:52:47;;;;;;;1.88;0.68;;;17.30;99.90;;;;;;5048787;28;20132;-81
2023/09/24 12:55:18;;;;;;;2.25;0.88;;;17.30;99.90;;;;;;5052465;28;20068;-81
2023/09/24 12:57:45;;;;;;;1.27;0.80;;;17.40;99.90;;;;;;5055248;28;20068;-81